Time;durP1;ratioP1;P1;durP2;ratioP2;P2;SDS_P1;SDS_P2;PMS_P1;PMS_P2;Temp;Humidity;BMP_temperature;BMP_pressure;BME280_temperature;BME280_humidity;BME280_pressure;Samples;Min_cycle;Max_cycle;Signal;HPM_P1;HPM_P2
2021/12/29 00:01:49;;;;;;;1.20;1.20;;;16.90;67.80;;;;;;4980526;28;44348;-78
2021/12/29 00:04:18;;;;;;;0.90;0.90;;;16.80;67.90;;;;;;4981814;28;43958;-77
2021/12/29 00:06:48;;;;;;;1.03;1.03;;;16.80;68.20;;;;;;4987975;28;43928;-78
2021/12/29 00:09:17;;;;;;;1.10;1.10;;;16.80;68.30;;;;;;4985756;28;46303;-78
2021/12/29 00:11:45;;;;;;;1.20;1.20;;;16.70;68.30;;;;;;4987427;28;43897;-77
2021/12/29 00:14:13;;;;;;;1.03;1.03;;;16.70;68.40;;;;;;4986180;28;43944;-77
2021/12/29 00:16:42;;;;;;;0.90;0.90;;;16.70;68.60;;;;;;4986298;28;43482;-78
2021/12/29 00:19:27;;;;;;;1.00;1.00;;;16.80;68.50;;;;;;4985951;28;45973;-78
2021/12/29 00:21:56;;;;;;;1.20;1.20;;;16.90;68.10;;;;;;4985932;28;43508;-78
2021/12/29 00:24:24;;;;;;;1.00;1.00;;;16.90;67.80;;;;;;4973108;28;43847;-77
2021/12/29 00:26:53;;;;;;;1.00;1.00;;;16.90;67.80;;;;;;4986435;28;43417;-77
2021/12/29 00:29:23;;;;;;;1.03;1.03;;;16.90;67.90;;;;;;4985910;28;44297;-77
2021/12/29 00:32:11;;;;;;;0.77;0.77;;;16.80;68.00;;;;;;4987219;28;44118;-77
2021/12/29 00:34:57;;;;;;;1.03;1.03;;;16.80;68.20;;;;;;4965097;28;44093;-77
2021/12/29 00:37:46;;;;;;;1.00;1.00;;;16.70;68.30;;;;;;4969248;28;43999;-78
2021/12/29 00:40:33;;;;;;;0.90;0.90;;;16.70;68.50;;;;;;4968639;28;44043;-75
2021/12/29 00:43:20;;;;;;;1.00;1.00;;;16.70;68.60;;;;;;4967785;28;43983;-78
2021/12/29 00:46:27;;;;;;;0.90;0.90;;;16.60;68.60;;;;;;4946128;28;43983;-77
2021/12/29 00:48:56;;;;;;;1.10;1.10;;;16.60;68.70;;;;;;4946421;28;43644;-77
2021/12/29 00:51:24;;;;;;;0.93;0.93;;;16.60;68.70;;;;;;4963111;28;43972;-77
2021/12/29 00:53:54;;;;;;;1.00;1.00;;;16.60;68.90;;;;;;4976710;28;43970;-77
2021/12/29 00:56:24;;;;;;;1.10;1.10;;;16.70;69.00;;;;;;4985889;28;43823;-77
2021/12/29 00:58:52;;;;;;;1.00;1.00;;;16.80;68.70;;;;;;4978094;28;44102;-78
2021/12/29 01:01:20;;;;;;;0.90;0.90;;;16.90;68.20;;;;;;4968203;28;44137;-78
2021/12/29 01:03:49;;;;;;;1.10;1.10;;;17.00;67.70;;;;;;4977583;28;43918;-77
2021/12/29 01:06:17;;;;;;;1.03;1.03;;;17.10;67.30;;;;;;4985701;28;43996;-78
2021/12/29 01:08:45;;;;;;;0.90;0.90;;;17.10;67.10;;;;;;4987276;28;43931;-77
2021/12/29 01:11:15;;;;;;;0.83;0.83;;;17.10;67.20;;;;;;4972328;28;45476;-78
2021/12/29 01:13:47;;;;;;;0.90;0.90;;;17.00;67.30;;;;;;4985318;28;44357;-78
2021/12/29 01:19:00;;;;;;;0.80;0.80;;;16.90;67.80;;;;;;4966523;28;43979;-78
2021/12/29 01:21:28;;;;;;;0.90;0.90;;;16.90;68.00;;;;;;4967756;28;43996;-77
2021/12/29 01:23:57;;;;;;;1.00;1.00;;;16.80;68.10;;;;;;4967227;28;43276;-78
2021/12/29 01:26:26;;;;;;;1.20;1.20;;;16.80;68.30;;;;;;4972963;28;43939;-77
2021/12/29 01:28:54;;;;;;;0.93;0.93;;;16.70;68.30;;;;;;4968038;28;43954;-77
2021/12/29 01:31:22;;;;;;;1.00;1.00;;;16.70;68.40;;;;;;4966239;28;45126;-77
2021/12/29 01:33:51;;;;;;;0.90;0.90;;;16.70;68.60;;;;;;4968000;28;44036;-78
2021/12/29 01:36:19;;;;;;;0.90;0.90;;;16.70;68.60;;;;;;4966655;28;44017;-78
2021/12/29 01:38:47;;;;;;;1.07;1.07;;;16.80;68.30;;;;;;4968559;28;43957;-78
2021/12/29 01:41:16;;;;;;;0.90;0.90;;;16.90;68.00;;;;;;4966235;28;45745;-78
2021/12/29 01:43:45;;;;;;;0.90;0.90;;;17.00;67.80;;;;;;4966393;28;43445;-77
2021/12/29 01:46:13;;;;;;;0.80;0.80;;;16.90;67.70;;;;;;4984966;28;43995;-78
2021/12/29 01:48:42;;;;;;;1.07;1.07;;;16.90;67.90;;;;;;4985953;28;44049;-78
2021/12/29 01:51:11;;;;;;;0.90;0.90;;;16.80;68.00;;;;;;4979713;28;44107;-78
2021/12/29 01:53:47;;;;;;;0.83;0.83;;;16.80;68.20;;;;;;4985709;28;44062;-78
2021/12/29 01:56:16;;;;;;;0.80;0.80;;;16.80;68.30;;;;;;4986303;28;43953;-77
2021/12/29 01:58:45;;;;;;;1.13;1.13;;;16.70;68.40;;;;;;4986450;28;43867;-77
2021/12/29 02:01:13;;;;;;;1.00;1.00;;;16.70;68.50;;;;;;5002707;22;45336;-68
2021/12/29 02:03:41;;;;;;;1.00;1.00;;;16.70;68.60;;;;;;4977802;28;44021;-69
2021/12/29 02:06:09;;;;;;;0.80;0.80;;;16.60;68.60;;;;;;4970899;28;44008;-68
2021/12/29 02:08:37;;;;;;;1.20;1.20;;;16.60;68.70;;;;;;4971066;28;43879;-68
2021/12/29 02:11:07;;;;;;;0.80;0.80;;;16.60;68.70;;;;;;4970527;28;44063;-68
2021/12/29 02:13:35;;;;;;;1.00;1.00;;;16.60;68.90;;;;;;4970307;28;43394;-68
2021/12/29 02:16:05;;;;;;;1.00;1.00;;;16.70;68.80;;;;;;4968960;28;44013;-69
2021/12/29 02:18:34;;;;;;;0.90;0.90;;;16.80;68.50;;;;;;4970745;28;44090;-68
2021/12/29 02:21:03;;;;;;;0.80;0.80;;;17.00;68.10;;;;;;4982875;28;43890;-68
2021/12/29 02:23:45;;;;;;;0.80;0.80;;;17.10;67.60;;;;;;4982759;28;44078;-68
2021/12/29 02:26:13;;;;;;;0.90;0.90;;;17.20;67.30;;;;;;4989144;28;43385;-69
2021/12/29 02:28:42;;;;;;;0.90;0.90;;;17.10;67.00;;;;;;4989076;28;43592;-68
2021/12/29 02:31:10;;;;;;;0.80;0.80;;;17.10;67.20;;;;;;4973780;28;44022;-68
2021/12/29 02:33:37;;;;;;;0.90;0.90;;;17.00;67.30;;;;;;4970150;28;43943;-68
2021/12/29 02:36:07;;;;;;;0.80;0.80;;;17.00;67.60;;;;;;4970221;28;44045;-69
2021/12/29 02:38:41;;;;;;;1.13;1.13;;;16.90;67.70;;;;;;4970497;28;43946;-68
2021/12/29 02:41:09;;;;;;;1.00;1.00;;;16.80;67.90;;;;;;4969821;28;45123;-68
2021/12/29 02:43:39;;;;;;;0.83;0.83;;;16.80;68.10;;;;;;4965615;28;45201;-68
2021/12/29 02:46:11;;;;;;;0.90;0.90;;;16.80;68.20;;;;;;4950620;28;44092;-68
2021/12/29 02:48:43;;;;;;;0.90;0.90;;;16.80;68.40;;;;;;4950977;28;43931;-68
2021/12/29 02:51:13;;;;;;;0.80;0.80;;;16.70;68.30;;;;;;4950185;28;45108;-68
2021/12/29 02:53:41;;;;;;;0.80;0.80;;;16.70;68.40;;;;;;4950383;28;43823;-68
2021/12/29 02:56:08;;;;;;;0.93;0.90;;;16.70;68.50;;;;;;4950182;28;44014;-68
2021/12/29 02:58:36;;;;;;;0.80;0.80;;;16.70;68.60;;;;;;4951023;28;43936;-69
2021/12/29 03:01:08;;;;;;;1.10;1.00;;;16.70;68.70;;;;;;4949644;28;43939;-68
2021/12/29 03:03:37;;;;;;;0.90;0.90;;;16.70;68.60;;;;;;4950468;28;43974;-68
2021/12/29 03:06:05;;;;;;;0.70;0.70;;;16.80;68.20;;;;;;4950340;28;43918;-69
2021/12/29 03:08:34;;;;;;;0.90;0.90;;;17.00;68.00;;;;;;4949139;28;43657;-69
2021/12/29 03:11:03;;;;;;;0.93;0.93;;;17.10;67.50;;;;;;4949581;28;44960;-68
2021/12/29 03:13:32;;;;;;;0.90;0.90;;;17.30;67.90;;;;;;4948468;28;45073;-68
2021/12/29 03:16:00;;;;;;;0.80;0.80;;;17.40;66.60;;;;;;4967283;28;43373;-68
2021/12/29 03:18:29;;;;;;;0.80;0.80;;;17.60;66.20;;;;;;4969265;28;43972;-68
2021/12/29 03:20:57;;;;;;;1.00;1.00;;;17.70;65.80;;;;;;4968593;28;43990;-68
2021/12/29 03:23:25;;;;;;;0.90;0.90;;;17.80;65.30;;;;;;4968674;28;43991;-68
2021/12/29 03:25:54;;;;;;;0.90;0.90;;;17.90;65.00;;;;;;4962375;28;43421;-68
2021/12/29 03:28:23;;;;;;;0.77;0.77;;;18.00;64.80;;;;;;4962845;28;44071;-68
2021/12/29 03:30:54;;;;;;;1.00;1.00;;;18.00;64.80;;;;;;4962246;28;44034;-69
2021/12/29 03:33:22;;;;;;;0.80;0.80;;;17.90;64.80;;;;;;4963066;28;43994;-68
2021/12/29 03:35:54;;;;;;;0.67;0.67;;;17.80;65.10;;;;;;4968760;28;43984;-68
2021/12/29 03:38:24;;;;;;;0.90;0.90;;;17.60;65.50;;;;;;4969200;28;43844;-68
2021/12/29 03:40:54;;;;;;;0.90;0.90;;;17.40;65.80;;;;;;4968452;28;44115;-69
2021/12/29 03:43:22;;;;;;;0.90;0.90;;;17.40;66.40;;;;;;4968284;28;44082;-68
2021/12/29 03:45:51;;;;;;;0.63;0.63;;;17.20;66.70;;;;;;4968497;28;43486;-69
2021/12/29 03:48:20;;;;;;;0.90;0.90;;;17.10;66.90;;;;;;4983290;28;43775;-68
2021/12/29 03:50:49;;;;;;;0.70;0.70;;;17.00;67.20;;;;;;4967612;28;43957;-68
2021/12/29 03:53:17;;;;;;;0.90;0.90;;;17.00;67.70;;;;;;4967986;28;43953;-68
2021/12/29 03:55:45;;;;;;;0.77;0.77;;;17.00;67.70;;;;;;4968088;28;43882;-69
2021/12/29 03:58:14;;;;;;;0.97;0.97;;;17.10;67.60;;;;;;4968307;28;44034;-68
2021/12/29 04:00:44;;;;;;;0.80;0.80;;;17.10;67.30;;;;;;4967155;28;45102;-68
2021/12/29 04:03:12;;;;;;;0.87;0.87;;;17.10;67.20;;;;;;4967996;28;43389;-68
2021/12/29 04:05:43;;;;;;;0.70;0.70;;;17.10;67.30;;;;;;4968248;28;44293;-68
2021/12/29 04:08:11;;;;;;;1.00;1.00;;;17.00;67.30;;;;;;4968218;28;43898;-68
2021/12/29 04:10:39;;;;;;;0.90;0.90;;;17.00;67.50;;;;;;4967357;28;44084;-68
2021/12/29 04:13:07;;;;;;;0.67;0.67;;;17.00;67.70;;;;;;4967895;28;43939;-68
2021/12/29 04:15:37;;;;;;;0.77;0.77;;;16.90;67.80;;;;;;4968001;28;44040;-68
2021/12/29 04:18:15;;;;;;;1.00;1.00;;;16.90;68.00;;;;;;4968487;28;44031;-68
2021/12/29 04:20:55;;;;;;;0.80;0.80;;;16.80;68.10;;;;;;4967633;28;43755;-68
2021/12/29 04:23:24;;;;;;;0.83;0.83;;;16.80;68.20;;;;;;4961917;28;43933;-69
2021/12/29 04:25:54;;;;;;;1.00;1.00;;;16.80;68.30;;;;;;4960236;28;43856;-68
2021/12/29 04:28:23;;;;;;;0.73;0.73;;;16.70;68.30;;;;;;4962399;28;44205;-68
2021/12/29 04:30:54;;;;;;;0.80;0.80;;;16.70;68.60;;;;;;4967419;28;44131;-68
2021/12/29 04:33:22;;;;;;;0.70;0.70;;;16.80;68.50;;;;;;4968063;28;43900;-68
2021/12/29 04:35:50;;;;;;;0.73;0.73;;;16.90;68.10;;;;;;4982424;28;43991;-69
2021/12/29 04:38:18;;;;;;;0.70;0.70;;;17.00;67.80;;;;;;4967695;28;44104;-68
2021/12/29 04:40:46;;;;;;;0.70;0.70;;;17.10;67.40;;;;;;4967121;28;43938;-68
2021/12/29 04:43:14;;;;;;;0.60;0.60;;;17.20;67.10;;;;;;4967223;28;43914;-68
2021/12/29 04:45:42;;;;;;;0.70;0.70;;;17.30;67.00;;;;;;4967280;28;43914;-68
2021/12/29 04:48:13;;;;;;;0.90;0.90;;;17.20;66.90;;;;;;4967598;28;43836;-68
2021/12/29 04:50:42;;;;;;;0.63;0.63;;;17.10;67.10;;;;;;4959323;28;43944;-69
2021/12/29 04:53:10;;;;;;;0.73;0.73;;;17.10;67.40;;;;;;4948516;28;44010;-68
2021/12/29 04:55:39;;;;;;;0.87;0.87;;;17.00;67.60;;;;;;4948756;28;43953;-68
2021/12/29 04:58:07;;;;;;;0.80;0.80;;;16.90;67.70;;;;;;4948962;28;44296;-68
2021/12/29 05:00:35;;;;;;;0.70;0.70;;;16.90;68.00;;;;;;4946317;28;45859;-68
2021/12/29 05:03:04;;;;;;;1.00;1.00;;;16.80;68.10;;;;;;4948957;28;43875;-68
2021/12/29 05:05:52;;;;;;;1.00;1.00;;;16.80;68.20;;;;;;4948463;28;43980;-69
2021/12/29 05:08:25;;;;;;;1.30;1.30;;;16.70;68.30;;;;;;4948908;28;43825;-68
2021/12/29 05:10:55;;;;;;;1.30;1.20;;;16.80;68.60;;;;;;4948029;28;43925;-69
2021/12/29 05:13:23;;;;;;;1.50;1.40;;;16.80;68.30;;;;;;4948248;28;43991;-69
2021/12/29 05:15:51;;;;;;;1.30;1.30;;;16.90;68.10;;;;;;4948237;28;43401;-68
2021/12/29 05:18:19;;;;;;;1.33;1.33;;;16.90;67.90;;;;;;4947499;28;44301;-68
2021/12/29 05:20:48;;;;;;;1.70;1.60;;;16.90;67.90;;;;;;4948024;28;43959;-69
2021/12/29 05:23:16;;;;;;;1.57;1.57;;;16.90;68.00;;;;;;4948057;28;44116;-69
2021/12/29 05:25:44;;;;;;;1.60;1.60;;;16.80;68.00;;;;;;4946984;28;43353;-69
2021/12/29 05:28:12;;;;;;;1.60;1.50;;;16.80;68.20;;;;;;4948466;28;43900;-68
2021/12/29 05:30:40;;;;;;;1.83;1.73;;;16.80;68.30;;;;;;4947662;28;43958;-68
2021/12/29 05:33:09;;;;;;;1.67;1.57;;;16.70;68.30;;;;;;4947895;28;43386;-67
2021/12/29 05:35:37;;;;;;;1.70;1.60;;;16.70;68.50;;;;;;4948357;28;43913;-68
2021/12/29 05:38:06;;;;;;;1.80;1.70;;;16.70;68.50;;;;;;4967921;28;43906;-68
2021/12/29 05:40:34;;;;;;;2.10;2.00;;;16.70;68.60;;;;;;4970507;28;43935;-69
2021/12/29 05:43:04;;;;;;;1.80;1.70;;;16.70;68.60;;;;;;4964595;28;43952;-68
2021/12/29 05:45:32;;;;;;;2.00;1.90;;;16.70;68.60;;;;;;4970201;28;44042;-68
2021/12/29 05:48:01;;;;;;;2.37;2.10;;;16.70;68.80;;;;;;4970633;28;43413;-68
2021/12/29 05:50:30;;;;;;;1.67;1.57;;;16.80;68.70;;;;;;4970181;28;43980;-69
2021/12/29 05:52:58;;;;;;;1.83;1.73;;;16.90;68.30;;;;;;4969357;28;44097;-68
2021/12/29 05:55:27;;;;;;;2.03;1.87;;;17.00;68.00;;;;;;4969955;28;43369;-69
2021/12/29 05:57:55;;;;;;;2.30;2.10;;;17.10;67.50;;;;;;4970153;28;43946;-68
2021/12/29 06:00:25;;;;;;;2.00;1.73;;;17.20;67.20;;;;;;4969298;28;43826;-69
2021/12/29 06:02:53;;;;;;;2.30;2.07;;;17.20;67.10;;;;;;4969662;28;44021;-68
2021/12/29 06:05:21;;;;;;;1.67;1.57;;;17.10;67.10;;;;;;4969641;28;44169;-68
2021/12/29 06:07:49;;;;;;;1.80;1.70;;;17.10;67.40;;;;;;4970078;28;43654;-68
2021/12/29 06:10:17;;;;;;;1.90;1.80;;;17.00;67.50;;;;;;4969560;28;44886;-68
2021/12/29 06:12:46;;;;;;;2.10;1.90;;;16.90;67.80;;;;;;4969132;28;43441;-68
2021/12/29 06:15:14;;;;;;;1.80;1.70;;;16.90;68.00;;;;;;4984651;28;43408;-68
2021/12/29 06:17:42;;;;;;;1.80;1.70;;;16.80;68.10;;;;;;4970221;28;43432;-69
2021/12/29 06:20:12;;;;;;;1.97;1.83;;;16.80;68.30;;;;;;4969602;28;44846;-68
2021/12/29 06:22:40;;;;;;;2.00;1.90;;;16.80;68.50;;;;;;4969488;28;43927;-68
2021/12/29 06:25:09;;;;;;;2.90;1.80;;;16.70;68.40;;;;;;4970020;28;44038;-69
2021/12/29 06:27:37;;;;;;;2.10;1.97;;;16.70;68.70;;;;;;4970287;28;43576;-68
2021/12/29 06:30:08;;;;;;;2.07;1.87;;;16.80;68.70;;;;;;4969766;28;43920;-68
2021/12/29 06:32:37;;;;;;;1.90;1.80;;;16.80;68.20;;;;;;4984183;28;45907;-69
2021/12/29 06:35:06;;;;;;;2.17;1.87;;;16.90;68.00;;;;;;4969390;28;44014;-69
2021/12/29 06:37:34;;;;;;;1.73;1.63;;;17.00;67.90;;;;;;4969775;28;43947;-68
2021/12/29 06:40:02;;;;;;;1.80;1.70;;;16.90;67.90;;;;;;4968932;28;44160;-69
2021/12/29 06:42:30;;;;;;;2.10;2.00;;;16.90;68.00;;;;;;4968901;28;43986;-68
2021/12/29 06:44:58;;;;;;;2.23;2.10;;;16.80;68.10;;;;;;4968575;28;44006;-68
2021/12/29 06:47:27;;;;;;;1.83;1.73;;;16.80;68.20;;;;;;4969485;28;43927;-68
2021/12/29 06:49:55;;;;;;;2.03;1.93;;;16.80;68.40;;;;;;4968481;28;44049;-67
2021/12/29 06:52:24;;;;;;;1.97;1.87;;;16.70;68.40;;;;;;4968591;28;43957;-68
2021/12/29 06:54:52;;;;;;;1.97;1.80;;;16.70;68.60;;;;;;4968726;28;44056;-68
2021/12/29 06:57:20;;;;;;;1.77;1.67;;;16.70;68.70;;;;;;4969353;28;43533;-69
2021/12/29 06:59:48;;;;;;;2.20;2.10;;;16.60;69.40;;;;;;4968673;28;43949;-68
2021/12/29 07:02:16;;;;;;;1.90;1.60;;;16.60;68.70;;;;;;4967602;28;46428;-68
2021/12/29 07:04:45;;;;;;;2.20;2.00;;;16.60;68.80;;;;;;4983810;28;43973;-69
2021/12/29 07:07:13;;;;;;;1.93;1.77;;;16.60;69.00;;;;;;4969150;28;44195;-68
2021/12/29 07:09:41;;;;;;;1.50;1.50;;;16.70;68.80;;;;;;4968493;28;43936;-68
2021/12/29 07:12:10;;;;;;;2.03;1.93;;;16.90;69.20;;;;;;4968436;28;43901;-69
2021/12/29 07:14:39;;;;;;;1.80;1.70;;;17.00;68.00;;;;;;4968963;28;44278;-69
2021/12/29 07:17:07;;;;;;;1.77;1.67;;;17.10;67.60;;;;;;4983883;28;44264;-68
2021/12/29 07:19:35;;;;;;;1.53;1.53;;;17.20;67.40;;;;;;4968846;28;43781;-68
2021/12/29 07:22:07;;;;;;;2.00;1.80;;;17.20;67.20;;;;;;4968566;28;43986;-69
2021/12/29 07:24:35;;;;;;;1.80;1.70;;;17.10;67.30;;;;;;4968818;28;44004;-68
2021/12/29 07:27:03;;;;;;;2.00;1.90;;;17.10;67.50;;;;;;4968945;28;43373;-69
2021/12/29 07:29:31;;;;;;;1.90;1.80;;;17.00;67.70;;;;;;4968251;28;43966;-69
2021/12/29 07:32:01;;;;;;;1.90;1.80;;;17.00;67.90;;;;;;4968123;28;44087;-68
2021/12/29 07:34:29;;;;;;;2.37;2.10;;;16.90;68.00;;;;;;4966764;28;43876;-68
2021/12/29 07:36:57;;;;;;;1.90;1.80;;;16.90;68.20;;;;;;4968386;28;43986;-68
2021/12/29 07:39:26;;;;;;;1.90;1.80;;;16.80;68.20;;;;;;4967864;28;43876;-69
2021/12/29 07:41:55;;;;;;;2.00;1.90;;;16.80;68.40;;;;;;4967466;28;44056;-68
2021/12/29 07:44:30;;;;;;;2.30;2.03;;;16.80;68.50;;;;;;4966459;28;43366;-68
2021/12/29 07:46:59;;;;;;;1.60;1.50;;;16.80;68.70;;;;;;4968020;28;43988;-69
2021/12/29 07:49:27;;;;;;;2.27;2.00;;;16.90;68.40;;;;;;4967594;28;43930;-68
2021/12/29 07:51:55;;;;;;;1.93;1.83;;;16.90;68.00;;;;;;4967385;28;44102;-68
2021/12/29 07:54:23;;;;;;;1.90;1.80;;;17.00;67.90;;;;;;4967686;28;43989;-68
2021/12/29 07:56:52;;;;;;;1.80;1.70;;;16.90;67.80;;;;;;4968102;28;43932;-69
2021/12/29 07:59:20;;;;;;;1.63;1.63;;;16.90;68.00;;;;;;4967465;28;44144;-69
2021/12/29 08:01:49;;;;;;;1.70;1.60;;;16.90;68.20;;;;;;4966166;28;44085;-69
2021/12/29 08:04:19;;;;;;;2.00;1.90;;;16.80;68.20;;;;;;4961654;28;43919;-68
2021/12/29 08:06:47;;;;;;;2.10;2.00;;;16.80;68.40;;;;;;4961949;28;43593;-69
2021/12/29 08:09:14;;;;;;;1.80;1.70;;;16.70;68.40;;;;;;4961589;28;43914;-69
2021/12/29 08:11:43;;;;;;;1.80;1.70;;;16.70;68.60;;;;;;4961378;28;43929;-68
2021/12/29 08:14:12;;;;;;;2.00;1.90;;;16.70;68.70;;;;;;4961598;28;44022;-68
2021/12/29 08:16:40;;;;;;;1.80;1.70;;;16.70;68.70;;;;;;4962058;28;44291;-68
2021/12/29 08:19:08;;;;;;;1.70;1.60;;;16.70;68.70;;;;;;4961765;28;43963;-68
2021/12/29 08:21:36;;;;;;;1.90;1.80;;;16.60;68.70;;;;;;4961718;28;43971;-69
2021/12/29 08:24:05;;;;;;;1.87;1.77;;;16.60;68.90;;;;;;4968073;28;43421;-68
2021/12/29 08:26:33;;;;;;;1.90;1.80;;;16.70;68.80;;;;;;4967962;28;43963;-68
2021/12/29 08:29:01;;;;;;;1.77;1.77;;;16.90;68.70;;;;;;4982025;28;46067;-69
2021/12/29 08:31:30;;;;;;;1.70;1.60;;;17.00;68.10;;;;;;4967008;28;43986;-68
2021/12/29 08:33:58;;;;;;;1.83;1.73;;;17.10;67.70;;;;;;4966975;28;43900;-69
2021/12/29 08:36:26;;;;;;;1.80;1.70;;;17.20;67.40;;;;;;4967509;28;44262;-69
2021/12/29 08:38:54;;;;;;;2.00;1.90;;;17.20;67.10;;;;;;4981926;28;47286;-69
2021/12/29 08:41:22;;;;;;;1.80;1.70;;;17.10;67.10;;;;;;4967409;28;44140;-69
2021/12/29 08:43:50;;;;;;;1.60;1.50;;;17.10;67.40;;;;;;4967185;28;43817;-68
2021/12/29 08:46:18;;;;;;;1.80;1.70;;;17.00;67.50;;;;;;4967989;28;43561;-68
2021/12/29 08:48:47;;;;;;;1.50;1.50;;;17.00;67.80;;;;;;4967162;28;44759;-69
2021/12/29 08:51:15;;;;;;;1.50;1.50;;;16.90;67.90;;;;;;4966073;28;44297;-69
2021/12/29 08:53:45;;;;;;;1.50;1.50;;;16.90;68.10;;;;;;4981679;28;44031;-68
2021/12/29 08:56:14;;;;;;;1.83;1.73;;;16.80;68.20;;;;;;4967192;28;43983;-68
2021/12/29 08:58:42;;;;;;;1.90;1.80;;;16.80;68.40;;;;;;4966552;28;44183;-68
2021/12/29 09:01:10;;;;;;;1.77;1.67;;;16.70;68.40;;;;;;4966051;28;43425;-69
2021/12/29 09:03:38;;;;;;;1.87;1.77;;;16.70;68.70;;;;;;4966890;28;43895;-68
2021/12/29 09:06:07;;;;;;;1.70;1.60;;;16.80;68.60;;;;;;4967247;28;43982;-69
2021/12/29 09:08:35;;;;;;;1.77;1.67;;;16.90;68.30;;;;;;4966750;28;45094;-68
2021/12/29 09:11:03;;;;;;;1.80;1.70;;;16.90;68.00;;;;;;4966541;28;44066;-69
2021/12/29 09:13:31;;;;;;;1.70;1.60;;;17.00;67.90;;;;;;4981484;28;43918;-69
2021/12/29 09:15:59;;;;;;;1.80;1.70;;;16.90;67.90;;;;;;4967300;28;43966;-69
2021/12/29 09:18:28;;;;;;;1.67;1.57;;;16.90;68.00;;;;;;4966917;28;43848;-69
2021/12/29 09:20:58;;;;;;;1.80;1.70;;;16.80;68.10;;;;;;4966696;28;44074;-68
2021/12/29 09:23:27;;;;;;;1.70;1.60;;;16.80;68.30;;;;;;4966831;28;44014;-68
2021/12/29 09:25:55;;;;;;;1.67;1.57;;;16.80;68.50;;;;;;4967278;28;44132;-68
2021/12/29 09:28:23;;;;;;;1.50;1.50;;;16.70;68.40;;;;;;4965254;28;45954;-69
2021/12/29 09:30:51;;;;;;;1.60;1.60;;;16.70;68.60;;;;;;4966230;28;43436;-68
2021/12/29 09:33:20;;;;;;;1.70;1.60;;;16.70;68.70;;;;;;4966143;28;43979;-68
2021/12/29 09:35:48;;;;;;;1.83;1.73;;;16.70;68.70;;;;;;4966715;28;44030;-68
2021/12/29 09:38:16;;;;;;;1.87;1.80;;;16.70;69.50;;;;;;4966176;28;45079;-68
2021/12/29 09:40:46;;;;;;;1.50;1.50;;;16.70;68.80;;;;;;4966114;28;43922;-70
2021/12/29 09:43:14;;;;;;;1.70;1.70;;;16.70;68.90;;;;;;4966076;28;44130;-68
2021/12/29 09:45:42;;;;;;;1.30;1.30;;;16.80;68.80;;;;;;4966624;28;43908;-68
2021/12/29 09:48:11;;;;;;;1.63;1.57;;;16.90;68.30;;;;;;4966031;28;44690;-69
2021/12/29 09:50:39;;;;;;;1.80;1.70;;;17.00;68.00;;;;;;4966020;28;43985;-68
2021/12/29 09:53:07;;;;;;;1.53;1.53;;;17.10;67.50;;;;;;4966379;28;43477;-68
2021/12/29 09:55:35;;;;;;;1.57;1.53;;;17.20;67.40;;;;;;4981656;28;44050;-68
2021/12/29 09:58:05;;;;;;;1.80;1.70;;;17.10;67.20;;;;;;4966351;28;45253;-70
2021/12/29 10:00:34;;;;;;;1.63;1.63;;;17.10;67.50;;;;;;4965996;28;43424;-68
2021/12/29 10:03:03;;;;;;;1.60;1.50;;;17.00;67.60;;;;;;4966439;28;43982;-68
2021/12/29 10:05:32;;;;;;;1.40;1.40;;;16.90;67.90;;;;;;4981054;28;43993;-68
2021/12/29 10:08:04;;;;;;;1.40;1.40;;;16.90;68.10;;;;;;4965711;28;43993;-68
2021/12/29 10:10:33;;;;;;;2.00;1.87;;;16.80;68.20;;;;;;4947924;28;45104;-68
2021/12/29 10:13:02;;;;;;;1.50;1.50;;;16.80;68.40;;;;;;4947201;28;44099;-69
2021/12/29 10:15:34;;;;;;;1.50;1.50;;;16.80;68.50;;;;;;4947296;28;44081;-68
2021/12/29 10:18:04;;;;;;;1.63;1.53;;;16.70;68.50;;;;;;4947275;28;43604;-68
2021/12/29 10:20:32;;;;;;;1.60;1.60;;;16.70;68.70;;;;;;4947090;28;43880;-69
2021/12/29 10:23:01;;;;;;;1.53;1.50;;;16.70;68.80;;;;;;4947179;28;44006;-68
2021/12/29 10:25:35;;;;;;;1.80;1.70;;;16.80;68.60;;;;;;4969040;28;43295;-69
2021/12/29 10:28:02;;;;;;;1.70;1.70;;;16.90;68.20;;;;;;4969216;28;43958;-68
2021/12/29 10:30:32;;;;;;;1.67;1.67;;;17.00;68.00;;;;;;4969020;28;44041;-69
2021/12/29 10:33:10;;;;;;;1.40;1.40;;;16.90;67.90;;;;;;4963240;28;43420;-68
2021/12/29 10:35:38;;;;;;;1.70;1.60;;;16.90;68.00;;;;;;4969842;28;43962;-68
2021/12/29 10:38:15;;;;;;;1.67;1.57;;;16.90;68.20;;;;;;4969294;28;43954;-68
2021/12/29 10:40:43;;;;;;;1.20;1.20;;;16.80;68.20;;;;;;4969354;28;44036;-69
2021/12/29 10:43:11;;;;;;;1.43;1.43;;;16.80;68.50;;;;;;4969299;28;43418;-69
2021/12/29 10:45:42;;;;;;;1.73;1.63;;;16.70;68.50;;;;;;4969273;28;44260;-69
2021/12/29 10:48:18;;;;;;;2.00;1.90;;;16.70;68.60;;;;;;4969262;28;43919;-68
2021/12/29 10:50:58;;;;;;;1.50;1.40;;;16.70;68.70;;;;;;4969100;28;43951;-68
2021/12/29 10:53:25;;;;;;;1.30;1.30;;;16.70;68.80;;;;;;4969001;28;43483;-68
2021/12/29 10:55:53;;;;;;;1.30;1.30;;;16.70;68.80;;;;;;4969244;28;44037;-69
2021/12/29 10:58:23;;;;;;;1.37;1.37;;;16.70;68.90;;;;;;4968889;28;43754;-69
2021/12/29 11:00:58;;;;;;;1.70;1.60;;;16.70;69.10;;;;;;4968582;28;44006;-68
2021/12/29 11:03:27;;;;;;;1.70;1.60;;;16.70;68.90;;;;;;4968971;28;44043;-68
2021/12/29 11:05:59;;;;;;;1.70;1.60;;;16.80;68.50;;;;;;4969273;28;43852;-69
2021/12/29 11:08:27;;;;;;;1.50;1.50;;;17.00;68.20;;;;;;4968850;28;43899;-68
2021/12/29 11:11:01;;;;;;;1.27;1.27;;;17.10;67.70;;;;;;4968685;28;43923;-68
2021/12/29 11:13:29;;;;;;;1.37;1.30;;;17.20;67.40;;;;;;4969028;28;43936;-69
2021/12/29 11:15:59;;;;;;;1.70;1.50;;;17.20;67.30;;;;;;4968936;28;43966;-68
2021/12/29 11:18:27;;;;;;;1.30;1.30;;;17.10;67.30;;;;;;4968370;28;44819;-68
2021/12/29 11:20:56;;;;;;;1.43;1.43;;;17.00;67.50;;;;;;4968467;28;44018;-68
2021/12/29 11:23:24;;;;;;;1.20;1.20;;;17.00;67.80;;;;;;4968736;28;43959;-68
2021/12/29 11:25:52;;;;;;;1.57;1.57;;;16.90;68.00;;;;;;4968843;28;44061;-69
2021/12/29 11:28:22;;;;;;;1.30;1.30;;;16.80;68.10;;;;;;4968262;28;45143;-68
2021/12/29 11:30:50;;;;;;;1.30;1.30;;;16.80;69.00;;;;;;4968255;28;44124;-68
2021/12/29 11:33:20;;;;;;;1.70;1.60;;;16.80;68.40;;;;;;4968467;28;43389;-68
2021/12/29 11:35:53;;;;;;;1.60;1.60;;;16.80;68.50;;;;;;4967869;28;43994;-68
2021/12/29 11:38:21;;;;;;;1.60;1.60;;;16.70;68.60;;;;;;4968187;28;43990;-68
2021/12/29 11:40:50;;;;;;;1.47;1.47;;;16.70;68.80;;;;;;4968299;28;43999;-69
2021/12/29 11:43:19;;;;;;;1.40;1.40;;;16.80;68.70;;;;;;4968069;28;43941;-68
2021/12/29 11:45:49;;;;;;;1.47;1.47;;;16.90;68.30;;;;;;4968592;28;43413;-68
2021/12/29 11:48:20;;;;;;;1.40;1.40;;;17.00;68.00;;;;;;4967945;28;43802;-68
2021/12/29 11:50:49;;;;;;;1.30;1.30;;;16.90;67.90;;;;;;4968316;28;43955;-68
2021/12/29 11:53:30;;;;;;;1.57;1.50;;;16.90;68.10;;;;;;4968108;28;44065;-68
2021/12/29 11:55:59;;;;;;;1.30;1.30;;;16.90;68.30;;;;;;4948045;28;43960;-69
2021/12/29 11:58:28;;;;;;;1.40;1.40;;;16.80;68.40;;;;;;4947532;28;46027;-69
2021/12/29 12:01:02;;;;;;;1.20;1.20;;;16.80;68.50;;;;;;4961764;28;44147;-68
2021/12/29 12:03:40;;;;;;;1.40;1.40;;;16.70;68.60;;;;;;4982637;28;44038;-69
2021/12/29 12:06:19;;;;;;;1.80;1.70;;;16.70;68.70;;;;;;4968250;28;43996;-68
2021/12/29 12:08:47;;;;;;;1.30;1.20;;;16.70;68.80;;;;;;4966129;28;46303;-68
2021/12/29 12:11:26;;;;;;;1.30;1.30;;;16.70;68.90;;;;;;4967315;28;44015;-68
2021/12/29 12:13:54;;;;;;;1.30;1.30;;;16.60;68.80;;;;;;4967534;28;43859;-68
2021/12/29 12:16:22;;;;;;;1.50;1.50;;;16.60;68.90;;;;;;4982588;28;43937;-67
2021/12/29 12:18:53;;;;;;;1.60;1.50;;;16.60;69.00;;;;;;4967635;28;44323;-68
2021/12/29 12:21:31;;;;;;;1.40;1.40;;;16.70;69.00;;;;;;4965648;28;46245;-68
2021/12/29 12:24:14;;;;;;;1.17;1.17;;;16.80;68.80;;;;;;4967435;28;44026;-68
2021/12/29 12:26:50;;;;;;;1.60;1.60;;;17.00;68.30;;;;;;4966698;28;43976;-68
2021/12/29 12:29:18;;;;;;;1.40;1.40;;;17.10;67.80;;;;;;4967753;28;43985;-69
2021/12/29 12:31:58;;;;;;;1.47;1.47;;;17.20;67.40;;;;;;4967404;28;43845;-68
2021/12/29 12:34:27;;;;;;;1.50;1.50;;;17.20;67.10;;;;;;4967891;28;44306;-69
2021/12/29 12:36:55;;;;;;;1.30;1.30;;;17.20;67.30;;;;;;4967804;28;44077;-68
2021/12/29 12:39:23;;;;;;;1.37;1.37;;;17.10;67.50;;;;;;4981872;28;47355;-69
2021/12/29 12:41:56;;;;;;;1.40;1.40;;;17.00;67.70;;;;;;4966770;28;43455;-68
2021/12/29 12:44:32;;;;;;;1.30;1.30;;;17.00;68.00;;;;;;4967205;28;44029;-68
2021/12/29 12:47:09;;;;;;;1.60;1.53;;;16.90;68.20;;;;;;4967226;28;43964;-68
2021/12/29 12:49:50;;;;;;;1.37;1.33;;;16.80;68.30;;;;;;4967237;28;44390;-69
2021/12/29 12:52:18;;;;;;;1.67;1.60;;;16.80;68.50;;;;;;4982199;28;43361;-68
2021/12/29 12:54:48;;;;;;;1.40;1.40;;;16.80;68.70;;;;;;4967250;28;43972;-68
2021/12/29 12:57:31;;;;;;;1.23;1.23;;;16.70;68.60;;;;;;4965768;28;43974;-68
2021/12/29 13:00:15;;;;;;;1.43;1.43;;;16.70;68.80;;;;;;4981536;28;46264;-68
2021/12/29 13:02:44;;;;;;;1.27;1.27;;;16.80;69.40;;;;;;4966971;28;44213;-68
2021/12/29 13:05:16;;;;;;;1.30;1.30;;;16.90;68.30;;;;;;4967156;28;43441;-68